sensor_id;sensor_type;location;lat;lon;timestamp;P1;durP1;ratioP1;P2;durP2;ratioP2
73168;SDS011;61379;59.732;30.468;2022-08-30T00:00:51;7.50;;;6.90;;
73168;SDS011;61379;59.732;30.468;2022-08-30T00:03:31;7.72;;;6.85;;
73168;SDS011;61379;59.732;30.468;2022-08-30T00:05:59;7.75;;;6.85;;
73168;SDS011;61379;59.732;30.468;2022-08-30T00:08:26;9.07;;;8.20;;
73168;SDS011;61379;59.732;30.468;2022-08-30T00:10:53;8.23;;;7.50;;
73168;SDS011;61379;59.732;30.468;2022-08-30T00:13:20;7.53;;;6.85;;
73168;SDS011;61379;59.732;30.468;2022-08-30T00:15:47;7.30;;;6.63;;
73168;SDS011;61379;59.732;30.468;2022-08-30T00:18:14;7.22;;;6.63;;
73168;SDS011;61379;59.732;30.468;2022-08-30T00:20:42;6.95;;;6.35;;
73168;SDS011;61379;59.732;30.468;2022-08-30T00:23:11;7.97;;;7.22;;
73168;SDS011;61379;59.732;30.468;2022-08-30T00:25:38;8.10;;;6.97;;
73168;SDS011;61379;59.732;30.468;2022-08-30T00:28:04;7.05;;;6.45;;
73168;SDS011;61379;59.732;30.468;2022-08-30T00:30:31;7.07;;;6.32;;
73168;SDS011;61379;59.732;30.468;2022-08-30T00:32:58;6.90;;;6.32;;
73168;SDS011;61379;59.732;30.468;2022-08-30T00:35:25;7.43;;;6.72;;
73168;SDS011;61379;59.732;30.468;2022-08-30T00:37:51;7.22;;;6.53;;
73168;SDS011;61379;59.732;30.468;2022-08-30T00:40:19;7.43;;;6.82;;
73168;SDS011;61379;59.732;30.468;2022-08-30T00:42:47;6.57;;;5.75;;
73168;SDS011;61379;59.732;30.468;2022-08-30T00:45:15;7.53;;;6.03;;
73168;SDS011;61379;59.732;30.468;2022-08-30T00:47:42;7.43;;;6.72;;
73168;SDS011;61379;59.732;30.468;2022-08-30T00:50:09;7.10;;;6.47;;
73168;SDS011;61379;59.732;30.468;2022-08-30T00:52:37;7.28;;;6.32;;
73168;SDS011;61379;59.732;30.468;2022-08-30T00:55:06;7.28;;;6.57;;
73168;SDS011;61379;59.732;30.468;2022-08-30T00:57:34;7.80;;;7.20;;
73168;SDS011;61379;59.732;30.468;2022-08-30T01:00:03;8.40;;;7.70;;
73168;SDS011;61379;59.732;30.468;2022-08-30T01:02:30;7.85;;;7.05;;
73168;SDS011;61379;59.732;30.468;2022-08-30T01:04:59;7.18;;;6.20;;
73168;SDS011;61379;59.732;30.468;2022-08-30T01:07:27;7.00;;;6.38;;
73168;SDS011;61379;59.732;30.468;2022-08-30T01:09:53;7.45;;;6.85;;
73168;SDS011;61379;59.732;30.468;2022-08-30T01:12:20;7.82;;;6.65;;
73168;SDS011;61379;59.732;30.468;2022-08-30T01:14:49;7.90;;;6.97;;
73168;SDS011;61379;59.732;30.468;2022-08-30T01:17:15;7.40;;;6.80;;
73168;SDS011;61379;59.732;30.468;2022-08-30T01:19:44;7.38;;;6.50;;
73168;SDS011;61379;59.732;30.468;2022-08-30T01:22:16;7.10;;;6.60;;
73168;SDS011;61379;59.732;30.468;2022-08-30T01:24:45;7.22;;;6.63;;
73168;SDS011;61379;59.732;30.468;2022-08-30T01:27:12;7.63;;;6.82;;
73168;SDS011;61379;59.732;30.468;2022-08-30T01:29:39;7.38;;;6.68;;
73168;SDS011;61379;59.732;30.468;2022-08-30T01:32:14;6.88;;;6.38;;
73168;SDS011;61379;59.732;30.468;2022-08-30T01:34:42;6.93;;;6.32;;
73168;SDS011;61379;59.732;30.468;2022-08-30T01:37:09;7.07;;;6.38;;
73168;SDS011;61379;59.732;30.468;2022-08-30T01:39:36;7.22;;;6.53;;
73168;SDS011;61379;59.732;30.468;2022-08-30T01:42:04;7.65;;;6.85;;
73168;SDS011;61379;59.732;30.468;2022-08-30T01:44:31;6.90;;;6.30;;
73168;SDS011;61379;59.732;30.468;2022-08-30T01:46:58;8.95;;;6.68;;
73168;SDS011;61379;59.732;30.468;2022-08-30T01:49:25;7.60;;;6.88;;
73168;SDS011;61379;59.732;30.468;2022-08-30T01:51:51;8.32;;;7.50;;
73168;SDS011;61379;59.732;30.468;2022-08-30T01:54:18;7.45;;;6.75;;
73168;SDS011;61379;59.732;30.468;2022-08-30T01:56:45;8.40;;;7.68;;
73168;SDS011;61379;59.732;30.468;2022-08-30T01:59:13;7.63;;;6.93;;
73168;SDS011;61379;59.732;30.468;2022-08-30T02:01:39;7.18;;;6.57;;
73168;SDS011;61379;59.732;30.468;2022-08-30T02:04:07;7.38;;;6.70;;
73168;SDS011;61379;59.732;30.468;2022-08-30T02:06:36;6.75;;;6.05;;
73168;SDS011;61379;59.732;30.468;2022-08-30T02:09:03;7.72;;;7.03;;
73168;SDS011;61379;59.732;30.468;2022-08-30T02:11:30;7.35;;;6.75;;
73168;SDS011;61379;59.732;30.468;2022-08-30T02:13:56;7.13;;;6.53;;
73168;SDS011;61379;59.732;30.468;2022-08-30T02:16:25;7.18;;;6.55;;
73168;SDS011;61379;59.732;30.468;2022-08-30T02:18:52;7.32;;;6.65;;
73168;SDS011;61379;59.732;30.468;2022-08-30T02:21:19;7.97;;;7.25;;
73168;SDS011;61379;59.732;30.468;2022-08-30T02:23:46;7.25;;;6.55;;
73168;SDS011;61379;59.732;30.468;2022-08-30T02:26:13;8.23;;;7.43;;
73168;SDS011;61379;59.732;30.468;2022-08-30T02:28:40;7.70;;;7.03;;
73168;SDS011;61379;59.732;30.468;2022-08-30T02:31:07;6.80;;;6.30;;
73168;SDS011;61379;59.732;30.468;2022-08-30T02:33:35;7.88;;;7.00;;
73168;SDS011;61379;59.732;30.468;2022-08-30T02:36:02;8.10;;;7.40;;
73168;SDS011;61379;59.732;30.468;2022-08-30T02:38:29;7.90;;;7.13;;
73168;SDS011;61379;59.732;30.468;2022-08-30T02:40:55;7.85;;;7.15;;
73168;SDS011;61379;59.732;30.468;2022-08-30T02:43:22;7.80;;;7.15;;
73168;SDS011;61379;59.732;30.468;2022-08-30T02:45:49;7.68;;;7.18;;
73168;SDS011;61379;59.732;30.468;2022-08-30T02:48:16;8.32;;;7.57;;
73168;SDS011;61379;59.732;30.468;2022-08-30T02:50:45;8.80;;;8.00;;
73168;SDS011;61379;59.732;30.468;2022-08-30T02:53:13;8.13;;;7.50;;
73168;SDS011;61379;59.732;30.468;2022-08-30T02:55:40;9.88;;;9.13;;
73168;SDS011;61379;59.732;30.468;2022-08-30T02:58:07;8.40;;;7.68;;
73168;SDS011;61379;59.732;30.468;2022-08-30T03:00:35;9.30;;;8.50;;
73168;SDS011;61379;59.732;30.468;2022-08-30T03:03:02;9.13;;;8.45;;
73168;SDS011;61379;59.732;30.468;2022-08-30T03:05:28;8.50;;;7.90;;
73168;SDS011;61379;59.732;30.468;2022-08-30T03:07:57;9.23;;;8.32;;
73168;SDS011;61379;59.732;30.468;2022-08-30T03:10:24;8.85;;;7.63;;
73168;SDS011;61379;59.732;30.468;2022-08-30T03:12:51;8.57;;;7.88;;
73168;SDS011;61379;59.732;30.468;2022-08-30T03:15:18;8.60;;;7.85;;
73168;SDS011;61379;59.732;30.468;2022-08-30T03:17:46;9.70;;;8.80;;
73168;SDS011;61379;59.732;30.468;2022-08-30T03:20:12;9.50;;;8.70;;
73168;SDS011;61379;59.732;30.468;2022-08-30T03:22:39;8.90;;;8.13;;
73168;SDS011;61379;59.732;30.468;2022-08-30T03:25:08;8.38;;;7.70;;
73168;SDS011;61379;59.732;30.468;2022-08-30T03:27:36;8.90;;;8.02;;
73168;SDS011;61379;59.732;30.468;2022-08-30T03:30:03;8.57;;;7.78;;
73168;SDS011;61379;59.732;30.468;2022-08-30T03:32:30;8.50;;;7.68;;
73168;SDS011;61379;59.732;30.468;2022-08-30T03:34:57;9.00;;;8.10;;
73168;SDS011;61379;59.732;30.468;2022-08-30T03:37:24;8.57;;;7.75;;
73168;SDS011;61379;59.732;30.468;2022-08-30T03:39:51;7.45;;;6.75;;
73168;SDS011;61379;59.732;30.468;2022-08-30T03:42:20;7.22;;;6.53;;
73168;SDS011;61379;59.732;30.468;2022-08-30T03:44:46;7.65;;;6.95;;
73168;SDS011;61379;59.732;30.468;2022-08-30T03:47:13;8.70;;;8.00;;
73168;SDS011;61379;59.732;30.468;2022-08-30T03:49:40;8.02;;;7.32;;
73168;SDS011;61379;59.732;30.468;2022-08-30T03:52:07;7.93;;;7.28;;
73168;SDS011;61379;59.732;30.468;2022-08-30T03:54:33;9.20;;;8.32;;
73168;SDS011;61379;59.732;30.468;2022-08-30T03:57:00;9.68;;;8.98;;
73168;SDS011;61379;59.732;30.468;2022-08-30T03:59:28;8.65;;;8.05;;
73168;SDS011;61379;59.732;30.468;2022-08-30T04:01:55;8.00;;;7.25;;
73168;SDS011;61379;59.732;30.468;2022-08-30T04:04:23;8.32;;;7.65;;
73168;SDS011;61379;59.732;30.468;2022-08-30T04:06:50;8.57;;;7.97;;
73168;SDS011;61379;59.732;30.468;2022-08-30T04:09:16;8.73;;;7.18;;
73168;SDS011;61379;59.732;30.468;2022-08-30T04:11:44;8.88;;;8.05;;
73168;SDS011;61379;59.732;30.468;2022-08-30T04:14:10;8.18;;;7.43;;
73168;SDS011;61379;59.732;30.468;2022-08-30T04:16:39;8.73;;;8.00;;
73168;SDS011;61379;59.732;30.468;2022-08-30T04:19:05;8.35;;;7.70;;
73168;SDS011;61379;59.732;30.468;2022-08-30T04:21:32;8.95;;;8.25;;
73168;SDS011;61379;59.732;30.468;2022-08-30T04:23:59;9.18;;;8.48;;
73168;SDS011;61379;59.732;30.468;2022-08-30T04:26:26;9.30;;;7.50;;
73168;SDS011;61379;59.732;30.468;2022-08-30T04:28:52;8.32;;;7.72;;
73168;SDS011;61379;59.732;30.468;2022-08-30T04:31:19;7.90;;;7.30;;
73168;SDS011;61379;59.732;30.468;2022-08-30T04:33:48;7.50;;;6.82;;
73168;SDS011;61379;59.732;30.468;2022-08-30T04:36:15;8.23;;;7.43;;
73168;SDS011;61379;59.732;30.468;2022-08-30T04:38:41;8.60;;;7.80;;
73168;SDS011;61379;59.732;30.468;2022-08-30T04:41:09;9.18;;;8.38;;
73168;SDS011;61379;59.732;30.468;2022-08-30T04:43:36;6.97;;;6.47;;
73168;SDS011;61379;59.732;30.468;2022-08-30T04:46:04;8.20;;;7.45;;
73168;SDS011;61379;59.732;30.468;2022-08-30T04:48:31;6.68;;;6.15;;
73168;SDS011;61379;59.732;30.468;2022-08-30T04:50:59;8.30;;;6.85;;
73168;SDS011;61379;59.732;30.468;2022-08-30T04:53:28;7.80;;;7.20;;
73168;SDS011;61379;59.732;30.468;2022-08-30T04:55:54;7.68;;;7.07;;
73168;SDS011;61379;59.732;30.468;2022-08-30T04:58:21;8.15;;;7.45;;
73168;SDS011;61379;59.732;30.468;2022-08-30T05:00:48;7.95;;;7.15;;
73168;SDS011;61379;59.732;30.468;2022-08-30T05:03:15;8.15;;;7.45;;
73168;SDS011;61379;59.732;30.468;2022-08-30T05:05:45;8.10;;;7.53;;
73168;SDS011;61379;59.732;30.468;2022-08-30T05:08:14;8.68;;;8.07;;
73168;SDS011;61379;59.732;30.468;2022-08-30T05:10:43;8.73;;;8.02;;
73168;SDS011;61379;59.732;30.468;2022-08-30T05:13:10;8.15;;;7.45;;
73168;SDS011;61379;59.732;30.468;2022-08-30T05:15:37;7.50;;;6.93;;
73168;SDS011;61379;59.732;30.468;2022-08-30T05:18:04;7.90;;;7.30;;
73168;SDS011;61379;59.732;30.468;2022-08-30T05:20:32;7.63;;;6.88;;
73168;SDS011;61379;59.732;30.468;2022-08-30T05:22:59;7.03;;;6.53;;
73168;SDS011;61379;59.732;30.468;2022-08-30T05:25:28;7.57;;;6.70;;
73168;SDS011;61379;59.732;30.468;2022-08-30T05:27:55;7.57;;;6.97;;
73168;SDS011;61379;59.732;30.468;2022-08-30T05:30:22;6.53;;;6.03;;
73168;SDS011;61379;59.732;30.468;2022-08-30T05:32:50;7.47;;;6.75;;
73168;SDS011;61379;59.732;30.468;2022-08-30T05:35:17;8.02;;;7.53;;
73168;SDS011;61379;59.732;30.468;2022-08-30T05:37:44;8.40;;;7.60;;
73168;SDS011;61379;59.732;30.468;2022-08-30T05:40:11;7.35;;;6.72;;
73168;SDS011;61379;59.732;30.468;2022-08-30T05:42:43;7.68;;;6.97;;
73168;SDS011;61379;59.732;30.468;2022-08-30T05:45:10;8.05;;;7.38;;
73168;SDS011;61379;59.732;30.468;2022-08-30T05:47:37;8.55;;;7.90;;
73168;SDS011;61379;59.732;30.468;2022-08-30T05:50:05;7.93;;;7.22;;
73168;SDS011;61379;59.732;30.468;2022-08-30T05:52:33;8.52;;;7.85;;
73168;SDS011;61379;59.732;30.468;2022-08-30T05:55:00;7.32;;;6.82;;
73168;SDS011;61379;59.732;30.468;2022-08-30T05:57:30;8.30;;;6.82;;
73168;SDS011;61379;59.732;30.468;2022-08-30T05:59:58;7.82;;;7.22;;
73168;SDS011;61379;59.732;30.468;2022-08-30T06:02:25;7.07;;;6.43;;
73168;SDS011;61379;59.732;30.468;2022-08-30T06:04:52;9.77;;;8.98;;
73168;SDS011;61379;59.732;30.468;2022-08-30T06:07:18;8.23;;;7.55;;
73168;SDS011;61379;59.732;30.468;2022-08-30T06:09:45;7.55;;;7.05;;
73168;SDS011;61379;59.732;30.468;2022-08-30T06:12:12;8.90;;;8.20;;
73168;SDS011;61379;59.732;30.468;2022-08-30T06:14:39;8.00;;;7.43;;
73168;SDS011;61379;59.732;30.468;2022-08-30T06:17:07;7.00;;;6.40;;
73168;SDS011;61379;59.732;30.468;2022-08-30T06:19:33;7.65;;;6.93;;
73168;SDS011;61379;59.732;30.468;2022-08-30T06:22:00;7.22;;;6.65;;
73168;SDS011;61379;59.732;30.468;2022-08-30T06:24:27;8.48;;;7.43;;
73168;SDS011;61379;59.732;30.468;2022-08-30T06:26:53;7.88;;;7.32;;
73168;SDS011;61379;59.732;30.468;2022-08-30T06:29:20;6.57;;;5.97;;
73168;SDS011;61379;59.732;30.468;2022-08-30T06:31:47;6.65;;;6.15;;
73168;SDS011;61379;59.732;30.468;2022-08-30T06:34:15;7.13;;;6.32;;
73168;SDS011;61379;59.732;30.468;2022-08-30T06:36:42;7.15;;;6.55;;
73168;SDS011;61379;59.732;30.468;2022-08-30T06:39:09;7.00;;;5.88;;
73168;SDS011;61379;59.732;30.468;2022-08-30T06:41:36;6.68;;;6.07;;
73168;SDS011;61379;59.732;30.468;2022-08-30T06:44:04;6.88;;;6.38;;
73168;SDS011;61379;59.732;30.468;2022-08-30T06:46:31;7.57;;;6.90;;
73168;SDS011;61379;59.732;30.468;2022-08-30T06:48:58;6.82;;;6.20;;
73168;SDS011;61379;59.732;30.468;2022-08-30T06:51:27;7.35;;;6.75;;
73168;SDS011;61379;59.732;30.468;2022-08-30T06:53:55;6.93;;;6.32;;
73168;SDS011;61379;59.732;30.468;2022-08-30T06:56:22;6.78;;;6.28;;
73168;SDS011;61379;59.732;30.468;2022-08-30T06:58:50;6.97;;;6.43;;
73168;SDS011;61379;59.732;30.468;2022-08-30T07:01:17;6.90;;;6.30;;
73168;SDS011;61379;59.732;30.468;2022-08-30T07:03:45;8.35;;;7.32;;
73168;SDS011;61379;59.732;30.468;2022-08-30T07:06:11;8.18;;;6.82;;
73168;SDS011;61379;59.732;30.468;2022-08-30T07:08:40;8.02;;;7.43;;
73168;SDS011;61379;59.732;30.468;2022-08-30T07:11:07;6.80;;;6.10;;
73168;SDS011;61379;59.732;30.468;2022-08-30T07:13:34;6.97;;;6.38;;
73168;SDS011;61379;59.732;30.468;2022-08-30T07:16:07;7.18;;;6.47;;
73168;SDS011;61379;59.732;30.468;2022-08-30T07:18:34;7.05;;;6.43;;
73168;SDS011;61379;59.732;30.468;2022-08-30T07:21:17;7.20;;;6.60;;
73168;SDS011;61379;59.732;30.468;2022-08-30T07:23:46;8.10;;;7.18;;
73168;SDS011;61379;59.732;30.468;2022-08-30T07:26:15;9.60;;;6.97;;
73168;SDS011;61379;59.732;30.468;2022-08-30T07:28:42;8.50;;;7.55;;
73168;SDS011;61379;59.732;30.468;2022-08-30T07:31:10;10.02;;;7.28;;
73168;SDS011;61379;59.732;30.468;2022-08-30T07:33:37;7.93;;;7.18;;
73168;SDS011;61379;59.732;30.468;2022-08-30T07:36:04;10.18;;;8.50;;
73168;SDS011;61379;59.732;30.468;2022-08-30T07:38:31;11.02;;;7.68;;
73168;SDS011;61379;59.732;30.468;2022-08-30T07:40:59;9.65;;;7.55;;
73168;SDS011;61379;59.732;30.468;2022-08-30T07:43:26;7.88;;;7.28;;
73168;SDS011;61379;59.732;30.468;2022-08-30T07:45:53;9.38;;;7.88;;
73168;SDS011;61379;59.732;30.468;2022-08-30T07:48:22;9.07;;;8.15;;
73168;SDS011;61379;59.732;30.468;2022-08-30T07:50:48;10.52;;;7.60;;
73168;SDS011;61379;59.732;30.468;2022-08-30T07:53:15;8.20;;;7.40;;
73168;SDS011;61379;59.732;30.468;2022-08-30T07:55:42;9.13;;;7.57;;
73168;SDS011;61379;59.732;30.468;2022-08-30T07:58:27;11.52;;;8.30;;
73168;SDS011;61379;59.732;30.468;2022-08-30T08:00:54;9.38;;;7.95;;
73168;SDS011;61379;59.732;30.468;2022-08-30T08:03:23;11.27;;;7.45;;
73168;SDS011;61379;59.732;30.468;2022-08-30T08:05:50;9.27;;;7.40;;
73168;SDS011;61379;59.732;30.468;2022-08-30T08:08:17;9.20;;;7.75;;
73168;SDS011;61379;59.732;30.468;2022-08-30T08:10:44;9.73;;;7.43;;
73168;SDS011;61379;59.732;30.468;2022-08-30T08:13:11;8.93;;;8.02;;
73168;SDS011;61379;59.732;30.468;2022-08-30T08:15:39;16.02;;;8.85;;
73168;SDS011;61379;59.732;30.468;2022-08-30T08:18:06;8.27;;;7.43;;
73168;SDS011;61379;59.732;30.468;2022-08-30T08:20:33;7.80;;;6.82;;
73168;SDS011;61379;59.732;30.468;2022-08-30T08:23:00;12.27;;;8.23;;
73168;SDS011;61379;59.732;30.468;2022-08-30T08:25:26;9.25;;;8.27;;
73168;SDS011;61379;59.732;30.468;2022-08-30T08:27:53;10.45;;;9.25;;
73168;SDS011;61379;59.732;30.468;2022-08-30T08:30:20;11.88;;;8.50;;
73168;SDS011;61379;59.732;30.468;2022-08-30T08:32:49;9.98;;;8.88;;
73168;SDS011;61379;59.732;30.468;2022-08-30T08:35:16;12.50;;;8.82;;
73168;SDS011;61379;59.732;30.468;2022-08-30T08:37:43;10.55;;;9.05;;
73168;SDS011;61379;59.732;30.468;2022-08-30T08:40:12;11.63;;;8.98;;
73168;SDS011;61379;59.732;30.468;2022-08-30T08:42:43;9.25;;;7.88;;
73168;SDS011;61379;59.732;30.468;2022-08-30T08:45:15;11.00;;;8.20;;
73168;SDS011;61379;59.732;30.468;2022-08-30T08:47:47;8.70;;;7.82;;
73168;SDS011;61379;59.732;30.468;2022-08-30T08:50:17;9.65;;;6.82;;
73168;SDS011;61379;59.732;30.468;2022-08-30T08:52:47;8.70;;;7.80;;
73168;SDS011;61379;59.732;30.468;2022-08-30T08:55:32;7.57;;;6.88;;
73168;SDS011;61379;59.732;30.468;2022-08-30T08:57:59;7.10;;;6.40;;
73168;SDS011;61379;59.732;30.468;2022-08-30T09:00:26;7.97;;;7.18;;
73168;SDS011;61379;59.732;30.468;2022-08-30T09:02:55;8.35;;;6.55;;
73168;SDS011;61379;59.732;30.468;2022-08-30T09:05:25;6.72;;;6.13;;
73168;SDS011;61379;59.732;30.468;2022-08-30T09:08:02;7.57;;;6.93;;
73168;SDS011;61379;59.732;30.468;2022-08-30T09:10:29;7.22;;;6.13;;
73168;SDS011;61379;59.732;30.468;2022-08-30T09:12:57;7.50;;;6.70;;
73168;SDS011;61379;59.732;30.468;2022-08-30T09:15:25;8.07;;;6.97;;
73168;SDS011;61379;59.732;30.468;2022-08-30T09:17:53;7.32;;;6.22;;
73168;SDS011;61379;59.732;30.468;2022-08-30T09:20:25;8.25;;;6.50;;
73168;SDS011;61379;59.732;30.468;2022-08-30T09:22:53;8.93;;;6.65;;
73168;SDS011;61379;59.732;30.468;2022-08-30T09:25:21;6.88;;;6.28;;
73168;SDS011;61379;59.732;30.468;2022-08-30T09:27:50;8.43;;;5.65;;
73168;SDS011;61379;59.732;30.468;2022-08-30T09:30:17;7.20;;;6.60;;
73168;SDS011;61379;59.732;30.468;2022-08-30T09:32:49;6.95;;;5.95;;
73168;SDS011;61379;59.732;30.468;2022-08-30T09:35:17;10.85;;;6.70;;
73168;SDS011;61379;59.732;30.468;2022-08-30T09:37:46;8.70;;;6.50;;
73168;SDS011;61379;59.732;30.468;2022-08-30T09:40:20;6.63;;;6.00;;
73168;SDS011;61379;59.732;30.468;2022-08-30T09:42:58;7.13;;;6.30;;
73168;SDS011;61379;59.732;30.468;2022-08-30T09:45:27;7.75;;;6.32;;
73168;SDS011;61379;59.732;30.468;2022-08-30T09:47:56;11.05;;;6.20;;
73168;SDS011;61379;59.732;30.468;2022-08-30T09:50:22;8.82;;;7.15;;
73168;SDS011;61379;59.732;30.468;2022-08-30T09:52:54;9.75;;;6.53;;
73168;SDS011;61379;59.732;30.468;2022-08-30T09:55:38;11.80;;;6.15;;
73168;SDS011;61379;59.732;30.468;2022-08-30T09:58:09;13.02;;;7.30;;
73168;SDS011;61379;59.732;30.468;2022-08-30T10:00:39;13.73;;;7.28;;
73168;SDS011;61379;59.732;30.468;2022-08-30T10:03:13;7.68;;;6.93;;
73168;SDS011;61379;59.732;30.468;2022-08-30T10:05:50;7.43;;;6.63;;
73168;SDS011;61379;59.732;30.468;2022-08-30T10:08:20;10.13;;;6.50;;
73168;SDS011;61379;59.732;30.468;2022-08-30T10:10:50;8.60;;;6.47;;
73168;SDS011;61379;59.732;30.468;2022-08-30T10:13:22;6.85;;;6.25;;
73168;SDS011;61379;59.732;30.468;2022-08-30T10:15:54;8.13;;;6.57;;
73168;SDS011;61379;59.732;30.468;2022-08-30T10:18:24;9.13;;;6.75;;
73168;SDS011;61379;59.732;30.468;2022-08-30T10:20:53;5.80;;;5.30;;
73168;SDS011;61379;59.732;30.468;2022-08-30T10:23:24;9.45;;;6.35;;
73168;SDS011;61379;59.732;30.468;2022-08-30T10:25:52;11.55;;;7.20;;
73168;SDS011;61379;59.732;30.468;2022-08-30T10:28:21;10.75;;;6.00;;
73168;SDS011;61379;59.732;30.468;2022-08-30T10:30:51;10.57;;;7.80;;
73168;SDS011;61379;59.732;30.468;2022-08-30T10:33:20;9.40;;;6.05;;
73168;SDS011;61379;59.732;30.468;2022-08-30T10:35:49;14.07;;;7.15;;
73168;SDS011;61379;59.732;30.468;2022-08-30T10:38:17;14.63;;;6.40;;
73168;SDS011;61379;59.732;30.468;2022-08-30T10:40:47;7.30;;;5.88;;
73168;SDS011;61379;59.732;30.468;2022-08-30T10:43:40;11.52;;;6.25;;
73168;SDS011;61379;59.732;30.468;2022-08-30T10:46:10;9.15;;;5.78;;
73168;SDS011;61379;59.732;30.468;2022-08-30T10:48:38;6.90;;;6.28;;
73168;SDS011;61379;59.732;30.468;2022-08-30T10:53:36;10.07;;;6.22;;
73168;SDS011;61379;59.732;30.468;2022-08-30T10:56:07;9.32;;;6.22;;
73168;SDS011;61379;59.732;30.468;2022-08-30T10:58:35;8.93;;;5.97;;
73168;SDS011;61379;59.732;30.468;2022-08-30T11:01:13;8.20;;;6.35;;
73168;SDS011;61379;59.732;30.468;2022-08-30T11:06:46;7.65;;;5.22;;
73168;SDS011;61379;59.732;30.468;2022-08-30T11:09:21;6.45;;;5.85;;
73168;SDS011;61379;59.732;30.468;2022-08-30T11:11:57;9.10;;;5.85;;
73168;SDS011;61379;59.732;30.468;2022-08-30T11:14:25;6.20;;;5.15;;
73168;SDS011;61379;59.732;30.468;2022-08-30T11:16:53;7.05;;;5.72;;
73168;SDS011;61379;59.732;30.468;2022-08-30T11:19:21;8.43;;;6.70;;
73168;SDS011;61379;59.732;30.468;2022-08-30T11:21:50;6.68;;;5.75;;
73168;SDS011;61379;59.732;30.468;2022-08-30T11:24:18;9.10;;;5.70;;
73168;SDS011;61379;59.732;30.468;2022-08-30T11:26:53;7.00;;;5.95;;
73168;SDS011;61379;59.732;30.468;2022-08-30T11:29:31;5.80;;;4.90;;
73168;SDS011;61379;59.732;30.468;2022-08-30T11:31:59;6.38;;;5.43;;
73168;SDS011;61379;59.732;30.468;2022-08-30T11:37:07;7.95;;;6.53;;
73168;SDS011;61379;59.732;30.468;2022-08-30T11:39:41;6.47;;;5.93;;
73168;SDS011;61379;59.732;30.468;2022-08-30T11:42:09;8.40;;;5.00;;
73168;SDS011;61379;59.732;30.468;2022-08-30T11:44:38;6.10;;;5.50;;
73168;SDS011;61379;59.732;30.468;2022-08-30T11:49:49;8.85;;;5.68;;
73168;SDS011;61379;59.732;30.468;2022-08-30T11:52:23;6.28;;;5.68;;
73168;SDS011;61379;59.732;30.468;2022-08-30T11:54:55;6.05;;;5.45;;
73168;SDS011;61379;59.732;30.468;2022-08-30T11:57:26;6.07;;;5.68;;
73168;SDS011;61379;59.732;30.468;2022-08-30T12:00:00;8.32;;;6.07;;
73168;SDS011;61379;59.732;30.468;2022-08-30T12:02:46;6.82;;;6.10;;
73168;SDS011;61379;59.732;30.468;2022-08-30T12:07:59;9.05;;;6.43;;
73168;SDS011;61379;59.732;30.468;2022-08-30T12:10:35;9.30;;;5.80;;
73168;SDS011;61379;59.732;30.468;2022-08-30T12:13:02;9.10;;;6.32;;
73168;SDS011;61379;59.732;30.468;2022-08-30T12:18:15;11.05;;;6.22;;
73168;SDS011;61379;59.732;30.468;2022-08-30T12:21:12;6.63;;;6.18;;
73168;SDS011;61379;59.732;30.468;2022-08-30T12:23:45;6.32;;;5.75;;
73168;SDS011;61379;59.732;30.468;2022-08-30T12:26:15;7.68;;;7.00;;
73168;SDS011;61379;59.732;30.468;2022-08-30T12:28:42;6.75;;;6.15;;
73168;SDS011;61379;59.732;30.468;2022-08-30T12:31:10;7.28;;;5.93;;
73168;SDS011;61379;59.732;30.468;2022-08-30T12:33:43;6.43;;;5.97;;
73168;SDS011;61379;59.732;30.468;2022-08-30T12:36:11;7.43;;;6.80;;
73168;SDS011;61379;59.732;30.468;2022-08-30T12:38:38;7.18;;;6.50;;
73168;SDS011;61379;59.732;30.468;2022-08-30T12:41:05;7.30;;;6.80;;
73168;SDS011;61379;59.732;30.468;2022-08-30T12:43:32;7.90;;;7.20;;
73168;SDS011;61379;59.732;30.468;2022-08-30T12:46:00;7.13;;;6.43;;
73168;SDS011;61379;59.732;30.468;2022-08-30T12:48:28;7.68;;;6.90;;
73168;SDS011;61379;59.732;30.468;2022-08-30T12:51:00;8.50;;;7.05;;
73168;SDS011;61379;59.732;30.468;2022-08-30T12:53:28;6.63;;;6.10;;
73168;SDS011;61379;59.732;30.468;2022-08-30T12:55:56;8.98;;;7.93;;
73168;SDS011;61379;59.732;30.468;2022-08-30T12:58:40;7.07;;;6.43;;
73168;SDS011;61379;59.732;30.468;2022-08-30T13:01:15;8.50;;;6.70;;
73168;SDS011;61379;59.732;30.468;2022-08-30T13:03:43;7.85;;;7.10;;
73168;SDS011;61379;59.732;30.468;2022-08-30T13:06:33;6.78;;;6.15;;
73168;SDS011;61379;59.732;30.468;2022-08-30T13:09:01;7.35;;;6.43;;
73168;SDS011;61379;59.732;30.468;2022-08-30T13:11:27;7.97;;;6.53;;
73168;SDS011;61379;59.732;30.468;2022-08-30T13:13:55;7.32;;;6.47;;
73168;SDS011;61379;59.732;30.468;2022-08-30T13:16:24;7.35;;;6.75;;
73168;SDS011;61379;59.732;30.468;2022-08-30T13:18:51;7.88;;;7.03;;
73168;SDS011;61379;59.732;30.468;2022-08-30T13:21:20;7.35;;;6.75;;
73168;SDS011;61379;59.732;30.468;2022-08-30T13:23:49;7.55;;;6.78;;
73168;SDS011;61379;59.732;30.468;2022-08-30T13:26:16;7.88;;;7.18;;
73168;SDS011;61379;59.732;30.468;2022-08-30T13:28:47;6.95;;;6.25;;
73168;SDS011;61379;59.732;30.468;2022-08-30T13:31:14;7.55;;;6.95;;
73168;SDS011;61379;59.732;30.468;2022-08-30T13:33:41;9.90;;;8.90;;
73168;SDS011;61379;59.732;30.468;2022-08-30T13:36:10;14.45;;;7.65;;
73168;SDS011;61379;59.732;30.468;2022-08-30T13:38:37;11.07;;;7.57;;
73168;SDS011;61379;59.732;30.468;2022-08-30T13:41:05;11.23;;;10.02;;
73168;SDS011;61379;59.732;30.468;2022-08-30T13:43:32;9.73;;;8.25;;
73168;SDS011;61379;59.732;30.468;2022-08-30T13:45:59;9.50;;;8.07;;
73168;SDS011;61379;59.732;30.468;2022-08-30T13:48:26;9.80;;;8.57;;
73168;SDS011;61379;59.732;30.468;2022-08-30T13:50:53;17.10;;;9.43;;
73168;SDS011;61379;59.732;30.468;2022-08-30T13:53:19;12.75;;;9.57;;
73168;SDS011;61379;59.732;30.468;2022-08-30T13:55:46;12.50;;;8.90;;
73168;SDS011;61379;59.732;30.468;2022-08-30T13:58:14;10.65;;;9.55;;
73168;SDS011;61379;59.732;30.468;2022-08-30T14:00:41;9.90;;;9.00;;
73168;SDS011;61379;59.732;30.468;2022-08-30T14:03:10;8.40;;;7.60;;
73168;SDS011;61379;59.732;30.468;2022-08-30T14:05:37;10.63;;;8.45;;
73168;SDS011;61379;59.732;30.468;2022-08-30T14:08:04;9.18;;;7.22;;
73168;SDS011;61379;59.732;30.468;2022-08-30T14:10:33;9.40;;;8.75;;
73168;SDS011;61379;59.732;30.468;2022-08-30T14:13:00;7.82;;;6.97;;
73168;SDS011;61379;59.732;30.468;2022-08-30T14:15:28;7.63;;;7.03;;
73168;SDS011;61379;59.732;30.468;2022-08-30T14:17:55;9.45;;;8.48;;
73168;SDS011;61379;59.732;30.468;2022-08-30T14:20:22;10.13;;;7.20;;
73168;SDS011;61379;59.732;30.468;2022-08-30T14:22:48;9.52;;;7.63;;
73168;SDS011;61379;59.732;30.468;2022-08-30T14:25:15;8.43;;;7.88;;
73168;SDS011;61379;59.732;30.468;2022-08-30T14:27:42;9.55;;;8.77;;
73168;SDS011;61379;59.732;30.468;2022-08-30T14:30:09;8.45;;;7.72;;
73168;SDS011;61379;59.732;30.468;2022-08-30T14:32:37;8.52;;;7.40;;
73168;SDS011;61379;59.732;30.468;2022-08-30T14:35:05;7.82;;;7.32;;
73168;SDS011;61379;59.732;30.468;2022-08-30T14:37:32;7.60;;;7.03;;
73168;SDS011;61379;59.732;30.468;2022-08-30T14:39:58;7.53;;;6.82;;
73168;SDS011;61379;59.732;30.468;2022-08-30T14:42:25;7.80;;;7.13;;
73168;SDS011;61379;59.732;30.468;2022-08-30T14:44:52;9.70;;;8.73;;
73168;SDS011;61379;59.732;30.468;2022-08-30T14:47:18;10.68;;;8.23;;
73168;SDS011;61379;59.732;30.468;2022-08-30T14:49:46;8.10;;;7.50;;
73168;SDS011;61379;59.732;30.468;2022-08-30T14:52:13;9.40;;;8.60;;
73168;SDS011;61379;59.732;30.468;2022-08-30T14:54:40;9.80;;;9.10;;
73168;SDS011;61379;59.732;30.468;2022-08-30T14:57:06;8.68;;;7.97;;